createdAt,value
2019-01-19T00:00:09.204Z,17.17
2019-01-19T00:03:15.047Z,17.53
2019-01-19T00:06:22.502Z,16.77
2019-01-19T00:09:19.059Z,16.80
2019-01-19T00:12:29.583Z,14.47
2019-01-19T00:15:15.836Z,15.80
2019-01-19T00:18:24.046Z,18.73
2019-01-19T00:21:39.138Z,18.30
2019-01-19T00:24:46.946Z,18.10
2019-01-19T00:28:04.712Z,21.53
2019-01-19T00:30:50.861Z,16.77
2019-01-19T00:33:59.686Z,19.30
2019-01-19T00:36:52.604Z,17.77
2019-01-19T00:40:06.912Z,18.30
2019-01-19T00:42:51.067Z,21.87
2019-01-19T00:46:12.873Z,24.37
2019-01-19T00:48:57.349Z,19.40
2019-01-19T00:52:04.950Z,21.33
2019-01-19T00:55:26.146Z,18.97
2019-01-19T00:58:40.428Z,15.07
2019-01-19T01:02:05.085Z,16.87
2019-01-19T01:04:52.755Z,18.77
2019-01-19T01:07:58.950Z,15.37
2019-01-19T01:11:19.512Z,13.67
2019-01-19T01:14:22.952Z,15.90
2019-01-19T01:17:41.888Z,16.97
2019-01-19T01:21:13.071Z,13.80
2019-01-19T01:23:55.701Z,17.33
2019-01-19T01:27:05.475Z,14.37
2019-01-19T01:30:05.335Z,19.83
2019-01-19T01:32:56.756Z,16.50
2019-01-19T01:35:59.334Z,17.63
2019-01-19T01:38:49.452Z,12.20
2019-01-19T01:42:00.591Z,13.87
2019-01-19T01:45:15.178Z,19.23
2019-01-19T01:48:36.574Z,16.87
2019-01-19T01:51:33.293Z,13.67
2019-01-19T01:54:41.612Z,15.37
2019-01-19T01:57:19.775Z,18.53
2019-01-19T02:00:29.042Z,17.17
2019-01-19T02:03:27.582Z,12.93
2019-01-19T02:06:21.737Z,16.07
2019-01-19T02:09:36.846Z,16.60
2019-01-19T02:13:10.317Z,13.43
2019-01-19T02:15:57.370Z,18.90
2019-01-19T02:18:59.295Z,14.83
2019-01-19T02:22:02.098Z,15.30
2019-01-19T02:25:22.915Z,14.60
2019-01-19T02:28:16.090Z,18.13
2019-01-19T02:31:30.593Z,14.33
2019-01-19T02:34:32.158Z,15.17
2019-01-19T02:37:32.990Z,14.23
2019-01-19T02:40:54.599Z,18.60
2019-01-19T02:43:58.265Z,12.80
2019-01-19T02:47:10.101Z,17.73
2019-01-19T02:50:06.661Z,16.13
2019-01-19T02:53:26.792Z,16.33
2019-01-19T02:56:39.026Z,14.53
2019-01-19T02:59:17.898Z,16.53
2019-01-19T03:02:16.396Z,12.87
2019-01-19T03:05:37.889Z,19.77
2019-01-19T03:08:50.686Z,17.97
2019-01-19T03:12:03.380Z,16.80
2019-01-19T03:15:14.643Z,19.00
2019-01-19T03:18:48.359Z,20.77
2019-01-19T03:21:45.146Z,18.70
2019-01-19T03:24:53.795Z,18.33
2019-01-19T03:28:03.894Z,17.63
2019-01-19T03:31:18.875Z,17.13
2019-01-19T03:34:46.567Z,18.63
2019-01-19T03:38:00.957Z,16.97
2019-01-19T03:40:54.290Z,15.90
2019-01-19T03:43:58.170Z,15.93
2019-01-19T03:47:06.594Z,14.07
2019-01-19T03:50:13.326Z,15.37
2019-01-19T03:52:51.578Z,20.50
2019-01-19T03:56:03.050Z,10.73
2019-01-19T03:58:47.197Z,15.93
2019-01-19T04:01:56.757Z,18.83
2019-01-19T04:05:05.321Z,15.60
2019-01-19T04:08:06.031Z,16.13
2019-01-19T04:11:18.175Z,15.97
2019-01-19T04:14:33.677Z,15.20
2019-01-19T04:17:41.784Z,12.90
2019-01-19T04:20:46.072Z,23.43
2019-01-19T04:23:17.544Z,20.13
2019-01-19T04:26:14.999Z,12.97
2019-01-19T04:28:47.032Z,17.83
2019-01-19T04:31:18.372Z,17.07
2019-01-19T04:33:50.769Z,19.93
2019-01-19T04:36:22.471Z,17.70
2019-01-19T04:38:54.251Z,23.37
2019-01-19T04:41:25.682Z,14.93
2019-01-19T04:43:57.060Z,17.70
2019-01-19T04:46:28.267Z,19.97
2019-01-19T04:48:59.833Z,21.90
2019-01-19T04:51:31.112Z,19.93
2019-01-19T04:54:02.607Z,21.57
2019-01-19T04:56:34.052Z,21.17
2019-01-19T04:59:06.454Z,15.83
2019-01-19T05:01:37.836Z,24.93
2019-01-19T05:04:14.674Z,19.07
2019-01-19T05:06:46.189Z,14.93
2019-01-19T05:09:17.638Z,18.37
2019-01-19T05:11:48.904Z,16.20
2019-01-19T05:14:20.674Z,17.70
2019-01-19T05:16:52.514Z,18.03
2019-01-19T05:19:24.031Z,22.27
2019-01-19T05:21:55.391Z,13.07
2019-01-19T05:24:26.819Z,16.17
2019-01-19T05:26:58.265Z,20.97
2019-01-19T05:29:29.946Z,15.30
2019-01-19T05:32:01.623Z,14.73
2019-01-19T05:34:33.332Z,13.40
2019-01-19T05:37:04.862Z,13.80
2019-01-19T05:39:36.370Z,14.47
2019-01-19T05:42:07.681Z,16.37
2019-01-19T05:44:39.150Z,17.20
2019-01-19T05:47:10.546Z,20.47
2019-01-19T05:49:41.836Z,18.53
2019-01-19T05:52:13.612Z,17.33
2019-01-19T05:54:45.671Z,20.27
2019-01-19T05:57:17.178Z,16.20
2019-01-19T05:59:48.471Z,15.93
2019-01-19T06:02:21.597Z,14.20
2019-01-19T06:04:53.361Z,14.70
2019-01-19T06:07:25.109Z,14.60
2019-01-19T06:09:56.338Z,12.67
2019-01-19T06:12:27.597Z,16.07
2019-01-19T06:14:58.969Z,18.90
2019-01-19T06:17:30.447Z,14.20
2019-01-19T06:20:01.634Z,15.77
2019-01-19T06:22:32.992Z,18.67
2019-01-19T06:25:10.170Z,14.07
2019-01-19T06:27:41.543Z,19.33
2019-01-19T06:30:16.410Z,19.93
2019-01-19T06:32:47.894Z,20.00
2019-01-19T06:35:19.754Z,18.07
2019-01-19T06:37:51.419Z,15.50
2019-01-19T06:40:22.822Z,18.37
2019-01-19T06:42:54.523Z,18.73
2019-01-19T06:45:27.003Z,16.30
2019-01-19T06:47:58.465Z,15.77
2019-01-19T06:50:29.783Z,16.63
2019-01-19T06:53:01.258Z,13.60
2019-01-19T06:55:34.813Z,15.70
2019-01-19T06:58:06.255Z,18.53
2019-01-19T07:00:37.584Z,21.47
2019-01-19T07:03:08.848Z,16.13
2019-01-19T07:05:40.433Z,20.23
2019-01-19T07:08:11.828Z,16.60
2019-01-19T07:10:43.726Z,19.97
2019-01-19T07:13:15.110Z,21.63
2019-01-19T07:15:46.885Z,15.83
2019-01-19T07:18:18.664Z,20.77
2019-01-19T07:20:50.109Z,19.83
2019-01-19T07:23:30.700Z,17.77
2019-01-19T07:26:02.065Z,18.23
2019-01-19T07:28:33.308Z,20.63
2019-01-19T07:31:04.698Z,18.03
2019-01-19T07:33:36.396Z,19.80
2019-01-19T07:36:07.900Z,19.80
2019-01-19T07:38:39.321Z,17.87
2019-01-19T07:41:10.528Z,23.17
2019-01-19T07:43:42.210Z,19.70
2019-01-19T07:46:14.190Z,17.97
2019-01-19T07:48:45.524Z,18.37
2019-01-19T07:51:18.217Z,20.67
2019-01-19T07:53:49.971Z,21.60
2019-01-19T07:56:21.346Z,20.23
2019-01-19T07:58:52.852Z,26.03
2019-01-19T08:01:24.666Z,21.67
2019-01-19T08:03:55.993Z,23.13
2019-01-19T08:06:27.560Z,22.63
2019-01-19T08:09:00.644Z,21.17
2019-01-19T08:11:33.905Z,22.27
2019-01-19T08:14:05.976Z,19.23
2019-01-19T08:16:37.471Z,23.00
2019-01-19T08:19:10.214Z,21.13
2019-01-19T08:21:41.732Z,25.47
2019-01-19T08:24:18.951Z,24.67
2019-01-19T08:26:50.339Z,22.27
2019-01-19T08:29:21.958Z,23.07
2019-01-19T08:31:53.499Z,24.93
2019-01-19T08:34:24.971Z,23.07
2019-01-19T08:36:56.917Z,24.47
2019-01-19T08:39:28.275Z,22.50
2019-01-19T08:41:59.815Z,20.60
2019-01-19T08:44:31.906Z,28.50
2019-01-19T08:47:03.451Z,21.13
2019-01-19T08:49:34.821Z,22.90
2019-01-19T08:52:06.216Z,22.33
2019-01-19T08:54:37.937Z,25.00
2019-01-19T08:57:09.348Z,27.63
2019-01-19T08:59:40.801Z,29.13
2019-01-19T09:02:12.544Z,34.97
2019-01-19T09:04:44.083Z,26.23
2019-01-19T09:07:15.424Z,26.27
2019-01-19T09:09:46.746Z,27.07
2019-01-19T09:12:18.345Z,28.33
2019-01-19T09:14:50.051Z,27.90
2019-01-19T09:17:21.358Z,22.80
2019-01-19T09:19:52.980Z,27.63
2019-01-19T09:22:24.536Z,25.13
2019-01-19T09:24:56.214Z,22.37
2019-01-19T09:27:27.707Z,23.47
2019-01-19T09:29:59.041Z,22.80
2019-01-19T09:32:30.642Z,20.37
2019-01-19T09:35:02.284Z,22.47
2019-01-19T09:37:40.670Z,22.83
2019-01-19T09:40:07.169Z,19.27
2019-01-19T09:42:38.452Z,24.70
2019-01-19T09:45:15.591Z,24.67
2019-01-19T09:47:47.121Z,18.97
2019-01-19T09:50:18.794Z,25.00
2019-01-19T09:52:50.222Z,21.83
2019-01-19T09:55:21.893Z,24.03
2019-01-19T09:57:53.520Z,23.53
2019-01-19T10:00:25.071Z,19.90
2019-01-19T10:02:57.546Z,25.03
2019-01-19T10:05:29.147Z,18.57
2019-01-19T10:08:00.623Z,24.57
2019-01-19T10:10:32.072Z,26.80
2019-01-19T10:13:03.344Z,28.07
2019-01-19T10:15:35.070Z,24.93
2019-01-19T10:18:06.684Z,27.13
2019-01-19T10:20:38.101Z,22.77
2019-01-19T10:23:09.393Z,20.63
2019-01-19T10:25:46.424Z,23.53
2019-01-19T10:28:17.839Z,20.97
2019-01-19T10:30:49.299Z,20.13
2019-01-19T10:33:20.855Z,28.47
2019-01-19T10:35:52.581Z,28.40
2019-01-19T10:38:24.294Z,17.63
2019-01-19T10:40:55.931Z,18.33
2019-01-19T10:43:27.296Z,18.57
2019-01-19T10:45:58.496Z,16.63
2019-01-19T10:48:29.904Z,19.50
2019-01-19T10:51:01.257Z,18.73
2019-01-19T10:53:32.906Z,17.00
2019-01-19T10:56:04.708Z,17.60
2019-01-19T10:58:36.120Z,18.50
2019-01-19T11:01:07.460Z,18.00
2019-01-19T11:03:44.819Z,23.50
2019-01-19T11:06:16.708Z,23.07
2019-01-19T11:08:48.337Z,23.93
2019-01-19T11:11:19.939Z,21.03
2019-01-19T11:13:51.862Z,24.67
2019-01-19T11:16:23.210Z,17.93
2019-01-19T11:18:54.577Z,23.77
2019-01-19T11:21:26.123Z,31.63
2019-01-19T11:23:58.440Z,20.00
2019-01-19T11:26:29.907Z,16.20
2019-01-19T11:29:01.354Z,20.00
2019-01-19T11:31:32.523Z,19.77
2019-01-19T11:34:09.146Z,20.40
2019-01-19T11:36:40.323Z,24.50
2019-01-19T11:39:11.621Z,22.37
2019-01-19T11:41:43.364Z,17.43
2019-01-19T11:44:14.982Z,23.03
2019-01-19T11:46:46.622Z,26.27
2019-01-19T11:49:18.409Z,26.27
2019-01-19T11:51:49.854Z,20.83
2019-01-19T11:54:22.145Z,14.07
2019-01-19T11:56:53.516Z,18.63
2019-01-19T11:59:24.904Z,17.93
2019-01-19T12:01:56.491Z,17.37
2019-01-19T12:04:28.008Z,16.87
2019-01-19T12:06:59.531Z,15.23
2019-01-19T12:09:31.027Z,18.17
2019-01-19T12:12:02.532Z,14.95
2019-01-19T12:14:34.452Z,16.53
2019-01-19T12:17:06.346Z,13.53
2019-01-19T12:19:37.680Z,18.87
2019-01-19T12:22:09.007Z,18.10
2019-01-19T12:24:40.566Z,17.10
2019-01-19T12:27:12.510Z,15.30
2019-01-19T12:29:44.389Z,13.93
2019-01-19T12:32:15.794Z,18.17
2019-01-19T12:34:47.169Z,21.17
2019-01-19T12:37:18.731Z,18.17
2019-01-19T12:39:50.061Z,16.07
2019-01-19T12:42:21.789Z,15.07
2019-01-19T12:44:53.986Z,24.20
2019-01-19T12:47:25.563Z,20.40
2019-01-19T12:49:56.924Z,17.03
2019-01-19T12:52:28.297Z,17.80
2019-01-19T12:54:59.686Z,18.17
2019-01-19T12:57:31.025Z,18.53
2019-01-19T13:00:02.822Z,18.23
2019-01-19T13:02:35.163Z,11.07
2019-01-19T13:05:11.738Z,15.87
2019-01-19T13:07:43.396Z,15.13
2019-01-19T13:10:24.934Z,14.63
2019-01-19T13:13:06.354Z,17.53
2019-01-19T13:16:22.313Z,10.23
2019-01-19T13:19:32.524Z,18.23
2019-01-19T13:22:47.508Z,16.93
2019-01-19T13:25:40.976Z,17.10
2019-01-19T13:28:28.359Z,16.80
2019-01-19T13:31:20.863Z,17.43
2019-01-19T13:34:20.467Z,12.93
2019-01-19T13:37:32.999Z,18.63
2019-01-19T13:40:48.215Z,15.93
2019-01-19T13:43:56.383Z,22.27
2019-01-19T13:47:04.089Z,20.40
2019-01-19T13:50:31.452Z,15.63
2019-01-19T13:53:38.556Z,18.93
2019-01-19T13:56:59.498Z,22.83
2019-01-19T13:59:54.822Z,25.13
2019-01-19T14:03:15.594Z,23.10
2019-01-19T14:06:08.152Z,20.87
2019-01-19T14:09:48.675Z,21.07
2019-01-19T14:12:57.295Z,19.00
2019-01-19T14:16:13.802Z,21.17
2019-01-19T14:19:16.297Z,20.13
2019-01-19T14:22:15.031Z,21.00
2019-01-19T14:25:18.873Z,25.53
2019-01-19T14:28:44.740Z,21.30
2019-01-19T14:32:08.800Z,17.83
2019-01-19T14:35:16.218Z,19.53
2019-01-19T14:38:41.048Z,20.30
2019-01-19T14:41:49.978Z,27.73
2019-01-19T14:45:13.949Z,23.90
2019-01-19T14:47:55.697Z,36.20
2019-01-19T14:50:49.850Z,60.77
2019-01-19T14:53:58.423Z,41.03
2019-01-19T14:56:57.963Z,37.90
2019-01-19T15:00:28.525Z,34.30
2019-01-19T15:03:38.312Z,38.07
2019-01-19T15:06:44.013Z,42.53
2019-01-19T15:09:51.530Z,46.93
2019-01-19T15:12:47.557Z,60.00
2019-01-19T15:15:56.208Z,56.87
2019-01-19T15:19:00.725Z,44.67
2019-01-19T15:22:12.363Z,37.97
2019-01-19T15:25:06.775Z,29.70
2019-01-19T15:28:08.107Z,31.77
2019-01-19T15:30:54.261Z,31.60
2019-01-19T15:34:21.914Z,33.33
2019-01-19T15:37:17.595Z,37.17
2019-01-19T15:40:21.478Z,40.20
2019-01-19T15:43:23.967Z,37.20
2019-01-19T15:46:32.695Z,38.03
2019-01-19T15:49:33.292Z,46.10
2019-01-19T15:52:41.085Z,80.03
2019-01-19T15:55:53.360Z,85.37
2019-01-19T15:59:09.253Z,71.23
2019-01-19T16:02:53.273Z,72.80
2019-01-19T16:06:20.146Z,62.23
2019-01-19T16:09:18.299Z,55.93
2019-01-19T16:12:14.096Z,54.03
2019-01-19T16:15:16.248Z,57.77
2019-01-19T16:18:29.745Z,55.20
2019-01-19T16:21:30.513Z,46.90
2019-01-19T16:24:45.053Z,55.70
2019-01-19T16:28:03.392Z,54.13
2019-01-19T16:31:08.768Z,41.80
2019-01-19T16:34:23.797Z,42.90
2019-01-19T16:37:32.633Z,52.50
2019-01-19T16:40:37.996Z,68.90
2019-01-19T16:43:31.908Z,56.73
2019-01-19T16:46:44.897Z,51.83
2019-01-19T16:49:55.087Z,46.50
2019-01-19T16:52:43.094Z,44.83
2019-01-19T16:55:45.905Z,32.33
2019-01-19T16:58:36.295Z,38.07
2019-01-19T17:01:47.383Z,36.37
2019-01-19T17:04:58.688Z,30.00
2019-01-19T17:08:23.850Z,32.53
2019-01-19T17:11:18.610Z,33.83
2019-01-19T17:14:35.143Z,35.07
2019-01-19T17:17:19.684Z,40.67
2019-01-19T17:20:29.237Z,30.87
2019-01-19T17:23:23.660Z,34.17
2019-01-19T17:26:36.199Z,35.90
2019-01-19T17:29:36.431Z,39.63
2019-01-19T17:32:51.975Z,36.77
2019-01-19T17:36:06.623Z,35.07
2019-01-19T17:39:14.208Z,36.40
2019-01-19T17:42:11.743Z,33.50
2019-01-19T17:45:22.554Z,31.27
2019-01-19T17:48:39.116Z,27.83
2019-01-19T17:51:22.020Z,31.93
2019-01-19T17:54:41.517Z,30.90
2019-01-19T17:57:30.148Z,34.10
2019-01-19T18:00:51.985Z,31.07
2019-01-19T18:03:36.214Z,29.70
2019-01-19T18:06:39.561Z,26.57
2019-01-19T18:09:48.447Z,26.90
2019-01-19T18:13:09.949Z,33.10
2019-01-19T18:16:14.566Z,27.17
2019-01-19T18:19:23.632Z,27.13
2019-01-19T18:22:13.831Z,26.23
2019-01-19T18:25:11.194Z,23.33
2019-01-19T18:28:22.580Z,26.20
2019-01-19T18:31:27.404Z,24.10
2019-01-19T18:34:48.206Z,22.87
2019-01-19T18:37:40.863Z,25.33
2019-01-19T18:41:00.835Z,23.00
2019-01-19T18:43:53.886Z,24.30
2019-01-19T18:47:03.868Z,25.67
2019-01-19T18:50:03.325Z,23.37
2019-01-19T18:53:08.161Z,28.80
2019-01-19T18:56:12.684Z,27.40
2019-01-19T18:58:59.428Z,25.23
2019-01-19T19:02:08.902Z,28.60
2019-01-19T19:05:37.385Z,33.00
2019-01-19T19:09:02.020Z,34.77
2019-01-19T19:12:24.772Z,29.70
2019-01-19T19:15:29.163Z,34.90
2019-01-19T19:19:05.941Z,33.37
2019-01-19T19:22:09.343Z,37.40
2019-01-19T19:25:37.178Z,31.97
2019-01-19T19:28:41.999Z,32.53
2019-01-19T19:31:53.789Z,32.47
2019-01-19T19:34:56.583Z,40.63
2019-01-19T19:38:12.009Z,32.30
2019-01-19T19:41:51.670Z,34.47
2019-01-19T19:45:07.587Z,30.67
2019-01-19T19:48:15.909Z,32.63
2019-01-19T19:51:12.487Z,26.67
2019-01-19T19:53:44.389Z,29.20
2019-01-19T19:56:14.020Z,27.47
2019-01-19T19:58:46.051Z,27.53
2019-01-19T20:01:17.735Z,29.80
2019-01-19T20:03:50.530Z,33.03
2019-01-19T20:06:21.825Z,29.07
2019-01-19T20:08:53.625Z,31.83
2019-01-19T20:11:25.256Z,34.90
2019-01-19T20:13:56.811Z,40.30
2019-01-19T20:16:28.397Z,35.53
2019-01-19T20:18:59.834Z,35.23
2019-01-19T20:21:31.188Z,42.67
2019-01-19T20:24:02.912Z,28.47
2019-01-19T20:26:35.277Z,32.77
2019-01-19T20:29:06.633Z,32.40
2019-01-19T20:31:38.291Z,27.97
2019-01-19T20:34:09.913Z,31.07
2019-01-19T20:36:41.663Z,32.70
2019-01-19T20:39:13.761Z,32.87
2019-01-19T20:41:45.228Z,32.37
2019-01-19T20:44:22.089Z,27.53
2019-01-19T20:46:53.568Z,26.03
2019-01-19T20:49:25.230Z,31.97
2019-01-19T20:51:56.717Z,29.40
2019-01-19T20:54:28.768Z,31.03
2019-01-19T20:57:00.970Z,23.57
2019-01-19T20:59:32.327Z,25.93
2019-01-19T21:02:03.984Z,28.70
2019-01-19T21:04:36.666Z,22.80
2019-01-19T21:07:08.431Z,23.97
2019-01-19T21:09:39.864Z,27.67
2019-01-19T21:12:11.241Z,25.70
2019-01-19T21:14:43.889Z,26.33
2019-01-19T21:17:15.387Z,27.13
2019-01-19T21:19:46.760Z,31.60
2019-01-19T21:22:18.296Z,28.33
2019-01-19T21:24:49.775Z,32.23
2019-01-19T21:27:21.565Z,24.77
2019-01-19T21:29:53.386Z,26.73
2019-01-19T21:32:24.834Z,24.00
2019-01-19T21:34:56.420Z,31.33
2019-01-19T21:37:28.157Z,30.17
2019-01-19T21:40:01.127Z,27.80
2019-01-19T21:42:32.549Z,25.87
2019-01-19T21:45:04.886Z,29.13
2019-01-19T21:47:36.302Z,27.00
2019-01-19T21:50:08.932Z,27.77
2019-01-19T21:52:40.616Z,21.00
2019-01-19T21:55:12.356Z,29.10
2019-01-19T21:57:44.028Z,24.40
2019-01-19T22:00:17.136Z,20.77
2019-01-19T22:02:48.571Z,31.07
2019-01-19T22:05:23.847Z,37.67
2019-01-19T22:07:55.356Z,30.80
2019-01-19T22:10:27.238Z,37.87
2019-01-19T22:12:58.977Z,28.43
2019-01-19T22:15:31.220Z,28.20
2019-01-19T22:18:03.256Z,29.63
2019-01-19T22:20:35.130Z,34.00
2019-01-19T22:23:06.772Z,30.40
2019-01-19T22:25:38.393Z,30.80
2019-01-19T22:28:09.789Z,33.83
2019-01-19T22:30:41.191Z,35.37
2019-01-19T22:33:13.290Z,29.47
2019-01-19T22:35:45.273Z,27.33
2019-01-19T22:38:16.724Z,23.97
2019-01-19T22:40:53.585Z,25.43
2019-01-19T22:43:28.537Z,26.47
2019-01-19T22:46:00.904Z,23.13
2019-01-19T22:48:32.552Z,24.30
2019-01-19T22:51:11.056Z,35.90
2019-01-19T22:53:37.630Z,25.37
2019-01-19T22:56:09.060Z,27.67
2019-01-19T22:58:40.634Z,24.43
2019-01-19T23:01:35.268Z,31.03
2019-01-19T23:04:08.369Z,28.50
2019-01-19T23:06:40.117Z,27.97
2019-01-19T23:09:13.492Z,25.33
2019-01-19T23:11:45.508Z,18.63
2019-01-19T23:14:22.487Z,21.43
2019-01-19T23:16:54.683Z,19.73
2019-01-19T23:19:27.155Z,24.00
2019-01-19T23:21:58.593Z,18.80
2019-01-19T23:24:29.971Z,20.30
2019-01-19T23:27:06.814Z,22.23
2019-01-19T23:29:39.902Z,21.73
2019-01-19T23:32:12.516Z,22.23
2019-01-19T23:34:45.478Z,17.70
2019-01-19T23:37:17.299Z,18.03
2019-01-19T23:39:49.000Z,15.40
2019-01-19T23:42:21.251Z,18.43
2019-01-19T23:44:54.208Z,17.63
2019-01-19T23:47:25.969Z,19.47
2019-01-19T23:49:58.922Z,18.10
2019-01-19T23:52:33.301Z,16.80
2019-01-19T23:55:06.288Z,16.23
2019-01-19T23:57:39.356Z,16.97
